Sarcobatus Flat, Nevada Weather observations

Data are for observation ending at time listed.
 Day   Time    Ave.   Ave.  Ave.  Vector   Max.   Stn.    Total    Solar   Ave.  
  of    of     Air    Rel.  Wind   Wind    Wind   Baro.  Precip.   Rad.    Soil  
Year   Day     Temp.  Hum.  Speed  Dir.    Gust   Pres.                    Temp. 
2016   (PST)    F      %     mph   deg.    mph     mb.     in.     W/m2     F   
------------------------------------------------------------------------------
 268   18:10   74.2    14    8.2   351     10.7   883.7    0.00       0    999.0
 268   18:20   73.7    15    6.2   359     10.4   883.8    0.00       0    999.0
 268   18:30   72.6    16    5.8   354      8.5   883.9    0.00       0    999.0
 268   18:40   72.3    16    5.7     1      9.9   884.0    0.00       0    999.0
 268   18:50   71.9    17    5.1     2      7.4   884.2    0.00       0    999.0
 268   19:00   71.7    17    5.6     2      8.4   884.3    0.00       0    999.0
 268   19:10   71.3    18    6.6   358      8.9   884.5    0.00       0    999.0
 268   19:20   70.6    19    5.4     0      8.1   884.6    0.00       0    999.0
 268   19:30   69.5    20    5.9   359      8.3   884.8    0.00       0    999.0
 268   19:40   68.4    21    7.7   352     10.4   884.8    0.00       0    999.0
 268   19:50   69.0    21    9.7   342     11.9   884.9    0.00       0    999.0
 268   20:00   69.0    21   10.3   334     12.6   885.0    0.00       0    999.0
 268   20:10   68.5    21    8.9   340     12.3   885.0    0.00       0    999.0
 268   20:20   69.3    21    8.5   332     11.1   885.2    0.00       0    999.0
 268   20:30   69.0    21    8.0   338     11.0   885.4    0.00       0    999.0
 268   20:40   68.7    22    5.7   352      8.3   885.5    0.00       0    999.0
 268   20:50   67.8    22    6.5   350      8.8   885.6    0.00       0    999.0
 268   21:00   69.4    21    8.1   345     13.5   885.7    0.00       0    999.0
 268   21:10   69.0    21    8.4   355     13.9   885.8    0.00       0    999.0
 268   21:20   69.5    21   10.2   331     15.6   885.9    0.00       0    999.0
 268   21:30   69.0    21    9.6   312     13.4   885.8    0.00       0    999.0
 268   21:40   67.9    22   11.4   305     17.5   885.9    0.00       0    999.0
 268   21:50   67.9    22   12.3   310     17.9   886.0    0.00       0    999.0
 268   22:00   67.8    21   12.1   309     17.4   886.1    0.00       0    999.0
 268   22:10   66.9    22   10.4   317     13.2   886.2    0.00       0    999.0
 268   22:20   66.2    23   11.9   328     14.8   886.2    0.00       0    999.0
 268   22:30   67.1    21    9.5     1     17.4   886.2    0.00       0    999.0
 268   22:40   66.4    22    7.6     2     13.1   886.1    0.00       0    999.0
 268   22:50   65.6    22    8.6   347     12.6   886.1    0.00       0    999.0
 268   23:00   64.5    24    6.0   328      9.2   886.1    0.00       0    999.0
 268   23:10   63.7    25    4.3   324      6.4   886.2    0.00       0    999.0
 268   23:20   62.1    26    6.3   318      7.9   886.2    0.00       0    999.0
 268   23:30   60.6    27    3.8   327      6.6   886.3    0.00       0    999.0
 268   23:40   61.0    27    3.0   294      5.4   886.4    0.00       0    999.0
 268   23:50   61.3    27    2.2   258      4.7   886.6    0.00       0    999.0
 269    0:00   61.5    27    0.8   244      2.4   886.7    0.00       0    999.0
 269    0:10   59.2    28    3.1    56      5.4   886.8    0.00       0    999.0
 269    0:20   58.2    28    4.5    46      7.6   886.9    0.00       0    999.0
 269    0:30   57.0    29    4.3    21      6.9   886.8    0.00       0    999.0
 269    0:40   55.7    30    4.1   318      7.3   886.9    0.00       0    999.0
 269    0:50   59.2    28    6.9   301     11.7   887.0    0.00       0    999.0
 269    1:00   60.9    28    9.8   324     14.3   887.1    0.00       0    999.0
 269    1:10   60.6    27    6.9   340      9.9   887.2    0.00       0    999.0
 269    1:20   61.7    26    7.7   331     10.7   887.2    0.00       0    999.0
 269    1:30   61.4    27    6.8   323      8.3   887.2    0.00       0    999.0
 269    1:40   61.0    27    4.3   308      7.4   887.1    0.00       0    999.0
 269    1:50   60.7    27    4.5   323      9.1   887.0    0.00       0    999.0
 269    2:00   59.2    28    8.8   319     12.9   887.0    0.00       0    999.0
 269    2:10   58.8    28    7.7   350     11.3   887.0    0.00       0    999.0
 269    2:20   60.7    26    9.2   342     23.7   886.9    0.00       0    999.0
 269    2:30   59.6    28    9.8   326     15.4   886.8    0.00       0    999.0
 269    2:40   57.0    30    9.0   330     11.0   886.8    0.00       0    999.0
 269    2:50   56.1    30    7.9   329     10.9   886.9    0.00       0    999.0
 269    3:00   55.8    30    8.8   331     12.4   887.0    0.00       0    999.0
 269    3:10   59.4    27   10.6   333     14.0   887.1    0.00       0    999.0
 269    3:20   58.3    28    9.5   338     16.7   887.4    0.00       0    999.0
 269    3:30   60.0    28   14.9   336     19.8   887.2    0.00       0    999.0
 269    3:40   60.4    28   16.4   329     22.0   887.1    0.00       0    999.0
 269    3:50   60.6    27   15.5   323     20.3   887.2    0.00       0    999.0
 269    4:00   60.0    28   13.8   318     19.5   887.4    0.00       0    999.0
 269    4:10   59.1    28   12.8   306     17.0   887.5    0.00       0    999.0
 269    4:20   59.0    28    7.4   314     13.4   887.8    0.00       0    999.0
 269    4:30   59.4    28    7.5   336     14.6   887.9    0.00       0    999.0
 269    4:40   60.4    27    9.9   332     15.1   887.9    0.00       0    999.0
 269    4:50   59.4    27    8.7   336     14.9   888.0    0.00       0    999.0
 269    5:00   58.7    28   10.4   337     13.5   888.0    0.00       0    999.0
 269    5:10   58.7    29   10.6   346     14.2   887.9    0.00       0    999.0
 269    5:20   58.5    28    6.7   358     10.4   888.1    0.00       0    999.0
 269    5:30   57.0    30    6.4   358      9.3   888.1    0.00       1    999.0
 269    5:40   57.3    30   10.8   342     13.4   888.1    0.00       3    999.0
 269    5:50   58.7    28   12.1   352     15.5   888.0    0.00       7    999.0
 269    6:00   59.7    28   10.6   356     14.7   888.0    0.00      18    999.0
 269    6:10   61.1    26    8.3   347     13.4   888.2    0.00      68    999.0
 269    6:20   61.8    26    7.7   344     12.2   888.3    0.00     100    999.0
 269    6:30   62.3    26    5.7   326      8.5   888.3    0.00     131    999.0
 269    6:40   62.8    25    7.8   342     11.2   888.2    0.00     164    999.0
 269    6:50   63.7    24    4.9    16      8.1   888.2    0.00     195    999.0
 269    7:00   65.3    23    4.7    20      9.1   888.3    0.00     231    999.0
 269    7:10   66.8    22    2.0   350      4.9   888.5    0.00     265    999.0
 269    7:20   67.2    22    7.9   297     15.9   888.5    0.00     297    999.0
 269    7:30   65.0    24   13.0   299     18.0   888.4    0.00     326    999.0
 269    7:40   66.3    23   13.5   310     20.2   888.5    0.00     364    999.0
 269    7:50   68.1    21   12.1   319     17.5   888.5    0.00     396    999.0
 269    8:00   68.8    20   11.2   342     18.7   888.6    0.00     429    999.0
 269    8:10   69.3    19   10.7   335     16.1   888.7    0.00     461    999.0
 269    8:20   70.4    18    7.6   343     11.9   888.7    0.00     492    999.0
 269    8:30   71.8    16    7.7   353     14.8   888.6    0.00     521    999.0
 269    8:40   72.7    14    7.4    16     15.1   888.7    0.00     552    999.0
 269    8:50   73.4    13    9.5    32     16.1   888.5    0.00     580    999.0
 269    9:00   73.8    13    9.1    18     19.1   888.4    0.00     607    999.0
 269    9:10   74.3    12    9.9     7     17.7   888.3    0.00     634    999.0
 269    9:20   75.0    11   10.0     9     17.7   888.3    0.00     659    999.0
 269    9:30   75.8    10    9.9    12     17.7   888.2    0.00     682    999.0
 269    9:40   76.2    10    9.4    17     17.8   888.1    0.00     704    999.0
 269    9:50   76.5    10    9.6     8     23.4   888.1    0.00     723    999.0
 269   10:00   76.5    10    8.4    23     15.9   887.9    0.00     742    999.0
 269   10:10   77.6    10    6.7    29     16.9   887.8    0.00     758    999.0
 269   10:20   77.7    10    7.3    40     13.9   887.7    0.00     773    999.0
 269   10:30   79.0     9    7.0    40     13.3   887.5    0.00     786    999.0
 269   10:40   78.7     9    8.0    24     18.0   887.5    0.00     798    999.0
 269   10:50   78.9     9    8.3    11     14.5   887.4    0.00     809    999.0
 269   11:00   79.3     9    5.7    26     16.6   887.4    0.00     818    999.0
 269   11:10   80.0     9    7.2    40     17.5   887.2    0.00     825    999.0
 269   11:20   80.1     9    7.4     7     16.4   887.1    0.00     831    999.0
 269   11:30   80.2     9    6.8    17     16.4   887.0    0.00     836    999.0
 269   11:40   80.2     9    6.9     9     13.3   886.8    0.00     837    999.0
 269   11:50   81.1     8    6.8    19     14.4   886.7    0.00     838    999.0
 269   12:00   81.2     9    7.7    20     16.9   886.7    0.00     833    999.0
 269   12:10   81.3     9    7.8   350     14.4   886.5    0.00     830    999.0
 269   12:20   82.0     9    8.7     9     17.5   886.2    0.00     827    999.0
 269   12:30   81.1     9    8.3   343     17.7   886.0    0.00     822    999.0
 269   12:40   82.1     9    9.9   332     17.2   885.9    0.00     813    999.0
 269   12:50   82.6     9   10.7   329     19.4   885.7    0.00     801    999.0
 269   13:00   83.4     8   11.1   347     27.8   885.6    0.00     788    999.0
 269   13:10   82.9     8   10.0   322     19.8   885.5    0.00     774    999.0
 269   13:20   84.0     8   10.8   346     18.9   885.3    0.00     756    999.0
 269   13:30   85.2     8    5.8    32     17.5   885.2    0.00     738    999.0
 269   13:40   85.6     8    9.8     1     19.4   885.1    0.00     720    999.0
 269   13:50   84.6     8    6.2   356     11.7   885.0    0.00     698    999.0
 269   14:00   85.2     8    6.8   357     15.1   884.9    0.00     676    999.0
 269   14:10   85.7     8    7.4     2     17.1   884.7    0.00     653    999.0
 269   14:20   86.5     8    8.7    22     16.2   884.7    0.00     627    999.0
 269   14:30   86.4     8    6.1    55     12.3   884.6    0.00     601    999.0
 269   14:40   86.5     8    6.0    19     13.1   884.7    0.00     574    999.0
 269   14:50   86.4     8    7.5    24     16.8   884.6    0.00     544    999.0
 269   15:00   86.4     8    8.0   349     16.8   884.5    0.00     513    999.0
 269   15:10   85.9     8    8.5    13     18.9   884.5    0.00     483    999.0
 269   15:20   86.2     8   10.3   340     17.5   884.4    0.00     451    999.0
 269   15:30   85.8     8   11.0   344     18.6   884.2    0.00     418    999.0
 269   15:40   85.7     9    8.2   339     19.4   884.2    0.00     385    999.0
 269   15:50   85.8     9    8.3   355     14.4   884.1    0.00     351    999.0
 269   16:00   85.7     9    8.4     3     16.7   884.1    0.00     317    999.0
 269   16:10   85.7     9    6.2    35     12.5   884.1    0.00     284    999.0
 269   16:20   85.6     9    8.1    38     15.8   884.0    0.00     250    999.0
 269   16:30   85.4     9    5.8    42     14.2   884.0    0.00     217    999.0
 269   16:40   85.2     9    4.5    35      9.4   884.0    0.00     185    999.0
 269   16:50   85.6     9    3.0    34      6.6   883.9    0.00     154    999.0
 269   17:00   85.4    10    5.6     3     13.8   883.9    0.00     121    999.0
 269   17:10   84.8    10    6.3   352      9.6   883.9    0.00      93    999.0
 269   17:20   84.2    10    5.2    15     11.4   884.0    0.00      59    999.0
 269   17:30   83.4    10    6.8   355     11.0   884.0    0.00      32    999.0
 269   17:40   82.0    10    6.3    13     11.8   884.0    0.00       7    999.0
 269   17:50   81.0    11    4.0    36      9.1   884.1    0.00       3    999.0
 269   18:00   78.1    11    3.2    66      5.3   884.2    0.00       1    999.0

Return to Sarcobatus Flat, Nevada graphs page.


Western Regional Climate Center,wrcc@dri.edu